sensor_id;sensor_type;location;lat;lon;timestamp;P1;durP1;ratioP1;P2;durP2;ratioP2
40717;SDS011;26405;51.850;-2.246;2024-03-08T00:01:09;27.40;;;18.85;;
40717;SDS011;26405;51.850;-2.246;2024-03-08T00:03:34;30.63;;;20.55;;
40717;SDS011;26405;51.850;-2.246;2024-03-08T00:05:59;27.42;;;20.55;;
40717;SDS011;26405;51.850;-2.246;2024-03-08T00:08:25;29.30;;;20.10;;
40717;SDS011;26405;51.850;-2.246;2024-03-08T00:10:50;28.33;;;20.08;;
40717;SDS011;26405;51.850;-2.246;2024-03-08T00:13:16;28.73;;;20.70;;
40717;SDS011;26405;51.850;-2.246;2024-03-08T00:15:41;28.88;;;20.77;;
40717;SDS011;26405;51.850;-2.246;2024-03-08T00:18:06;30.40;;;21.00;;
40717;SDS011;26405;51.850;-2.246;2024-03-08T00:20:32;29.00;;;19.65;;
40717;SDS011;26405;51.850;-2.246;2024-03-08T00:22:57;27.80;;;20.67;;
40717;SDS011;26405;51.850;-2.246;2024-03-08T00:25:23;29.67;;;21.25;;
40717;SDS011;26405;51.850;-2.246;2024-03-08T00:27:48;28.65;;;20.70;;
40717;SDS011;26405;51.850;-2.246;2024-03-08T00:30:14;29.38;;;21.15;;
40717;SDS011;26405;51.850;-2.246;2024-03-08T00:32:39;27.65;;;20.70;;
40717;SDS011;26405;51.850;-2.246;2024-03-08T00:35:05;31.63;;;21.48;;
40717;SDS011;26405;51.850;-2.246;2024-03-08T00:37:33;28.63;;;20.92;;
40717;SDS011;26405;51.850;-2.246;2024-03-08T00:39:59;31.67;;;21.90;;
40717;SDS011;26405;51.850;-2.246;2024-03-08T00:42:25;30.00;;;22.20;;
40717;SDS011;26405;51.850;-2.246;2024-03-08T00:44:50;30.35;;;21.88;;
40717;SDS011;26405;51.850;-2.246;2024-03-08T00:47:16;29.95;;;22.38;;
40717;SDS011;26405;51.850;-2.246;2024-03-08T00:49:41;33.58;;;23.27;;
40717;SDS011;26405;51.850;-2.246;2024-03-08T00:52:07;31.33;;;22.88;;
40717;SDS011;26405;51.850;-2.246;2024-03-08T00:54:33;29.90;;;22.42;;
40717;SDS011;26405;51.850;-2.246;2024-03-08T00:56:58;31.63;;;23.05;;
40717;SDS011;26405;51.850;-2.246;2024-03-08T00:59:23;31.00;;;22.98;;
40717;SDS011;26405;51.850;-2.246;2024-03-08T01:01:49;29.90;;;22.00;;
40717;SDS011;26405;51.850;-2.246;2024-03-08T01:04:14;29.75;;;22.20;;
40717;SDS011;26405;51.850;-2.246;2024-03-08T01:06:39;30.63;;;22.98;;
40717;SDS011;26405;51.850;-2.246;2024-03-08T01:09:04;31.42;;;23.17;;
40717;SDS011;26405;51.850;-2.246;2024-03-08T01:13:57;33.97;;;22.20;;
40717;SDS011;26405;51.850;-2.246;2024-03-08T01:16:23;31.30;;;23.10;;
40717;SDS011;26405;51.850;-2.246;2024-03-08T01:18:48;31.02;;;22.92;;
40717;SDS011;26405;51.850;-2.246;2024-03-08T01:21:14;31.25;;;22.88;;
40717;SDS011;26405;51.850;-2.246;2024-03-08T01:23:39;31.48;;;23.55;;
40717;SDS011;26405;51.850;-2.246;2024-03-08T01:26:04;32.08;;;22.63;;
40717;SDS011;26405;51.850;-2.246;2024-03-08T01:28:30;31.80;;;24.27;;
40717;SDS011;26405;51.850;-2.246;2024-03-08T01:30:55;34.70;;;25.23;;
40717;SDS011;26405;51.850;-2.246;2024-03-08T01:33:26;33.63;;;24.08;;
40717;SDS011;26405;51.850;-2.246;2024-03-08T01:35:52;35.47;;;25.15;;
40717;SDS011;26405;51.850;-2.246;2024-03-08T01:38:17;33.03;;;24.48;;
40717;SDS011;26405;51.850;-2.246;2024-03-08T01:40:43;31.30;;;25.35;;
40717;SDS011;26405;51.850;-2.246;2024-03-08T01:43:27;36.63;;;25.67;;
40717;SDS011;26405;51.850;-2.246;2024-03-08T01:45:58;33.53;;;25.75;;
40717;SDS011;26405;51.850;-2.246;2024-03-08T01:48:30;32.25;;;25.75;;
40717;SDS011;26405;51.850;-2.246;2024-03-08T01:50:55;34.15;;;26.00;;
40717;SDS011;26405;51.850;-2.246;2024-03-08T01:53:21;33.83;;;26.05;;
40717;SDS011;26405;51.850;-2.246;2024-03-08T01:55:48;35.93;;;27.13;;
40717;SDS011;26405;51.850;-2.246;2024-03-08T01:58:13;34.55;;;26.90;;
40717;SDS011;26405;51.850;-2.246;2024-03-08T02:00:44;35.10;;;27.50;;
40717;SDS011;26405;51.850;-2.246;2024-03-08T02:03:11;35.78;;;27.77;;
40717;SDS011;26405;51.850;-2.246;2024-03-08T02:05:37;35.83;;;27.77;;
40717;SDS011;26405;51.850;-2.246;2024-03-08T02:08:03;34.75;;;27.73;;
40717;SDS011;26405;51.850;-2.246;2024-03-08T02:10:30;35.83;;;27.13;;
40717;SDS011;26405;51.850;-2.246;2024-03-08T02:12:57;35.73;;;27.43;;
40717;SDS011;26405;51.850;-2.246;2024-03-08T02:15:23;34.42;;;27.48;;
40717;SDS011;26405;51.850;-2.246;2024-03-08T02:17:48;35.28;;;27.88;;
40717;SDS011;26405;51.850;-2.246;2024-03-08T02:20:14;35.47;;;28.80;;
40717;SDS011;26405;51.850;-2.246;2024-03-08T02:22:39;37.33;;;28.52;;
40717;SDS011;26405;51.850;-2.246;2024-03-08T02:25:05;33.30;;;26.77;;
40717;SDS011;26405;51.850;-2.246;2024-03-08T02:27:30;38.97;;;27.88;;
40717;SDS011;26405;51.850;-2.246;2024-03-08T02:29:56;35.90;;;28.35;;
40717;SDS011;26405;51.850;-2.246;2024-03-08T02:32:22;34.08;;;27.27;;
40717;SDS011;26405;51.850;-2.246;2024-03-08T02:34:48;36.80;;;29.67;;
40717;SDS011;26405;51.850;-2.246;2024-03-08T02:37:14;34.92;;;27.23;;
40717;SDS011;26405;51.850;-2.246;2024-03-08T02:39:39;36.17;;;28.20;;
40717;SDS011;26405;51.850;-2.246;2024-03-08T02:42:05;36.08;;;27.70;;
40717;SDS011;26405;51.850;-2.246;2024-03-08T02:44:31;33.30;;;26.60;;
40717;SDS011;26405;51.850;-2.246;2024-03-08T02:46:57;36.72;;;27.17;;
40717;SDS011;26405;51.850;-2.246;2024-03-08T02:49:22;35.63;;;28.80;;
40717;SDS011;26405;51.850;-2.246;2024-03-08T02:51:47;33.35;;;26.17;;
40717;SDS011;26405;51.850;-2.246;2024-03-08T02:54:12;34.78;;;27.35;;
40717;SDS011;26405;51.850;-2.246;2024-03-08T02:56:38;36.47;;;27.95;;
40717;SDS011;26405;51.850;-2.246;2024-03-08T02:59:03;35.83;;;27.95;;
40717;SDS011;26405;51.850;-2.246;2024-03-08T03:01:28;35.30;;;27.65;;
40717;SDS011;26405;51.850;-2.246;2024-03-08T03:03:54;36.25;;;28.23;;
40717;SDS011;26405;51.850;-2.246;2024-03-08T03:06:19;36.00;;;27.65;;
40717;SDS011;26405;51.850;-2.246;2024-03-08T03:08:46;34.33;;;27.98;;
40717;SDS011;26405;51.850;-2.246;2024-03-08T03:11:11;37.08;;;27.88;;
40717;SDS011;26405;51.850;-2.246;2024-03-08T03:13:38;35.63;;;28.75;;
40717;SDS011;26405;51.850;-2.246;2024-03-08T03:16:04;36.70;;;28.70;;
40717;SDS011;26405;51.850;-2.246;2024-03-08T03:18:29;34.38;;;28.35;;
40717;SDS011;26405;51.850;-2.246;2024-03-08T03:20:54;35.13;;;27.85;;
40717;SDS011;26405;51.850;-2.246;2024-03-08T03:23:20;34.33;;;28.10;;
40717;SDS011;26405;51.850;-2.246;2024-03-08T03:25:45;37.67;;;30.17;;
40717;SDS011;26405;51.850;-2.246;2024-03-08T03:28:11;33.97;;;26.77;;
40717;SDS011;26405;51.850;-2.246;2024-03-08T03:30:39;36.53;;;27.52;;
40717;SDS011;26405;51.850;-2.246;2024-03-08T03:33:05;36.85;;;29.02;;
40717;SDS011;26405;51.850;-2.246;2024-03-08T03:35:32;35.13;;;28.20;;
40717;SDS011;26405;51.850;-2.246;2024-03-08T03:37:59;37.80;;;28.20;;
40717;SDS011;26405;51.850;-2.246;2024-03-08T03:40:42;35.88;;;28.55;;
40717;SDS011;26405;51.850;-2.246;2024-03-08T03:43:10;38.03;;;29.25;;
40717;SDS011;26405;51.850;-2.246;2024-03-08T03:45:35;35.60;;;28.52;;
40717;SDS011;26405;51.850;-2.246;2024-03-08T03:48:02;37.60;;;29.30;;
40717;SDS011;26405;51.850;-2.246;2024-03-08T03:50:27;34.72;;;27.40;;
40717;SDS011;26405;51.850;-2.246;2024-03-08T03:52:52;37.90;;;30.00;;
40717;SDS011;26405;51.850;-2.246;2024-03-08T03:55:18;37.78;;;28.73;;
40717;SDS011;26405;51.850;-2.246;2024-03-08T03:57:44;39.33;;;28.48;;
40717;SDS011;26405;51.850;-2.246;2024-03-08T04:00:11;37.43;;;28.30;;
40717;SDS011;26405;51.850;-2.246;2024-03-08T04:02:40;35.53;;;27.50;;
40717;SDS011;26405;51.850;-2.246;2024-03-08T04:05:08;37.47;;;28.60;;
40717;SDS011;26405;51.850;-2.246;2024-03-08T04:07:33;33.90;;;27.60;;
40717;SDS011;26405;51.850;-2.246;2024-03-08T04:09:59;37.03;;;28.17;;
40717;SDS011;26405;51.850;-2.246;2024-03-08T04:12:24;35.53;;;28.20;;
40717;SDS011;26405;51.850;-2.246;2024-03-08T04:14:50;36.45;;;27.80;;
40717;SDS011;26405;51.850;-2.246;2024-03-08T04:17:15;36.65;;;27.77;;
40717;SDS011;26405;51.850;-2.246;2024-03-08T04:19:40;34.50;;;29.15;;
40717;SDS011;26405;51.850;-2.246;2024-03-08T04:22:06;33.92;;;27.80;;
40717;SDS011;26405;51.850;-2.246;2024-03-08T04:24:32;34.53;;;27.88;;
40717;SDS011;26405;51.850;-2.246;2024-03-08T04:26:57;35.13;;;28.10;;
40717;SDS011;26405;51.850;-2.246;2024-03-08T04:29:24;33.47;;;27.27;;
40717;SDS011;26405;51.850;-2.246;2024-03-08T04:31:49;36.13;;;27.17;;
40717;SDS011;26405;51.850;-2.246;2024-03-08T04:34:14;34.10;;;25.65;;
40717;SDS011;26405;51.850;-2.246;2024-03-08T04:36:39;35.10;;;27.42;;
40717;SDS011;26405;51.850;-2.246;2024-03-08T04:39:05;33.47;;;25.17;;
40717;SDS011;26405;51.850;-2.246;2024-03-08T04:41:30;33.33;;;25.40;;
40717;SDS011;26405;51.850;-2.246;2024-03-08T04:43:56;36.10;;;25.67;;
40717;SDS011;26405;51.850;-2.246;2024-03-08T04:46:23;34.70;;;25.80;;
40717;SDS011;26405;51.850;-2.246;2024-03-08T04:48:48;32.47;;;24.13;;
40717;SDS011;26405;51.850;-2.246;2024-03-08T04:51:13;33.42;;;26.48;;
40717;SDS011;26405;51.850;-2.246;2024-03-08T04:53:39;35.53;;;26.60;;
40717;SDS011;26405;51.850;-2.246;2024-03-08T04:56:04;32.85;;;25.42;;
40717;SDS011;26405;51.850;-2.246;2024-03-08T04:58:37;33.28;;;25.00;;
40717;SDS011;26405;51.850;-2.246;2024-03-08T05:01:03;32.00;;;24.80;;
40717;SDS011;26405;51.850;-2.246;2024-03-08T05:03:28;33.63;;;24.75;;
40717;SDS011;26405;51.850;-2.246;2024-03-08T05:05:55;32.00;;;24.95;;
40717;SDS011;26405;51.850;-2.246;2024-03-08T05:08:21;34.70;;;25.63;;
40717;SDS011;26405;51.850;-2.246;2024-03-08T05:10:46;34.25;;;25.35;;
40717;SDS011;26405;51.850;-2.246;2024-03-08T05:13:11;34.35;;;25.55;;
40717;SDS011;26405;51.850;-2.246;2024-03-08T05:15:39;32.05;;;24.10;;
40717;SDS011;26405;51.850;-2.246;2024-03-08T05:18:04;32.03;;;24.80;;
40717;SDS011;26405;51.850;-2.246;2024-03-08T05:20:29;32.03;;;24.92;;
40717;SDS011;26405;51.850;-2.246;2024-03-08T05:22:55;33.78;;;25.00;;
40717;SDS011;26405;51.850;-2.246;2024-03-08T05:25:22;32.55;;;24.35;;
40717;SDS011;26405;51.850;-2.246;2024-03-08T05:27:47;35.15;;;24.85;;
40717;SDS011;26405;51.850;-2.246;2024-03-08T05:30:13;32.20;;;24.27;;
40717;SDS011;26405;51.850;-2.246;2024-03-08T05:32:43;32.08;;;24.55;;
40717;SDS011;26405;51.850;-2.246;2024-03-08T05:35:11;32.45;;;23.55;;
40717;SDS011;26405;51.850;-2.246;2024-03-08T05:37:37;31.13;;;24.58;;
40717;SDS011;26405;51.850;-2.246;2024-03-08T05:40:02;32.25;;;24.63;;
40717;SDS011;26405;51.850;-2.246;2024-03-08T05:42:33;33.05;;;23.25;;
40717;SDS011;26405;51.850;-2.246;2024-03-08T05:44:59;31.77;;;23.13;;
40717;SDS011;26405;51.850;-2.246;2024-03-08T05:47:24;31.65;;;24.05;;
40717;SDS011;26405;51.850;-2.246;2024-03-08T05:49:49;33.38;;;25.05;;
40717;SDS011;26405;51.850;-2.246;2024-03-08T05:52:14;34.78;;;24.98;;
40717;SDS011;26405;51.850;-2.246;2024-03-08T05:54:40;31.60;;;25.00;;
40717;SDS011;26405;51.850;-2.246;2024-03-08T05:57:06;35.13;;;25.40;;
40717;SDS011;26405;51.850;-2.246;2024-03-08T05:59:31;32.45;;;25.10;;
40717;SDS011;26405;51.850;-2.246;2024-03-08T06:01:56;32.08;;;24.58;;
40717;SDS011;26405;51.850;-2.246;2024-03-08T06:04:22;30.38;;;22.88;;
40717;SDS011;26405;51.850;-2.246;2024-03-08T06:06:48;31.92;;;24.80;;
40717;SDS011;26405;51.850;-2.246;2024-03-08T06:09:13;35.03;;;24.50;;
40717;SDS011;26405;51.850;-2.246;2024-03-08T06:11:42;32.60;;;25.08;;
40717;SDS011;26405;51.850;-2.246;2024-03-08T06:14:08;32.42;;;24.17;;
40717;SDS011;26405;51.850;-2.246;2024-03-08T06:16:33;33.45;;;23.63;;
40717;SDS011;26405;51.850;-2.246;2024-03-08T06:18:58;31.85;;;23.63;;
40717;SDS011;26405;51.850;-2.246;2024-03-08T06:21:27;34.13;;;24.50;;
40717;SDS011;26405;51.850;-2.246;2024-03-08T06:23:53;32.10;;;22.58;;
40717;SDS011;26405;51.850;-2.246;2024-03-08T06:28:44;33.88;;;23.90;;
40717;SDS011;26405;51.850;-2.246;2024-03-08T06:31:10;30.60;;;22.75;;
40717;SDS011;26405;51.850;-2.246;2024-03-08T06:33:36;37.33;;;24.35;;
40717;SDS011;26405;51.850;-2.246;2024-03-08T06:36:01;32.70;;;25.08;;
40717;SDS011;26405;51.850;-2.246;2024-03-08T06:38:26;31.92;;;22.70;;
40717;SDS011;26405;51.850;-2.246;2024-03-08T06:40:52;32.25;;;24.08;;
40717;SDS011;26405;51.850;-2.246;2024-03-08T06:43:18;31.75;;;23.48;;
40717;SDS011;26405;51.850;-2.246;2024-03-08T06:45:46;33.38;;;23.95;;
40717;SDS011;26405;51.850;-2.246;2024-03-08T06:48:16;32.67;;;23.15;;
40717;SDS011;26405;51.850;-2.246;2024-03-08T06:50:42;32.47;;;23.73;;
40717;SDS011;26405;51.850;-2.246;2024-03-08T06:53:08;33.17;;;24.00;;
40717;SDS011;26405;51.850;-2.246;2024-03-08T06:55:33;34.30;;;23.92;;
40717;SDS011;26405;51.850;-2.246;2024-03-08T06:57:59;36.33;;;24.52;;
40717;SDS011;26405;51.850;-2.246;2024-03-08T07:00:24;33.67;;;24.58;;
40717;SDS011;26405;51.850;-2.246;2024-03-08T07:02:52;33.10;;;24.80;;
40717;SDS011;26405;51.850;-2.246;2024-03-08T07:05:18;33.33;;;24.77;;
40717;SDS011;26405;51.850;-2.246;2024-03-08T07:07:44;33.63;;;24.52;;
40717;SDS011;26405;51.850;-2.246;2024-03-08T07:10:09;31.73;;;23.23;;
40717;SDS011;26405;51.850;-2.246;2024-03-08T07:12:39;33.47;;;24.38;;
40717;SDS011;26405;51.850;-2.246;2024-03-08T07:15:05;31.67;;;24.15;;
40717;SDS011;26405;51.850;-2.246;2024-03-08T07:17:30;34.70;;;26.05;;
40717;SDS011;26405;51.850;-2.246;2024-03-08T07:19:56;31.95;;;24.48;;
40717;SDS011;26405;51.850;-2.246;2024-03-08T07:22:24;34.20;;;24.58;;
40717;SDS011;26405;51.850;-2.246;2024-03-08T07:24:49;33.83;;;23.98;;
40717;SDS011;26405;51.850;-2.246;2024-03-08T07:27:35;33.10;;;24.08;;
40717;SDS011;26405;51.850;-2.246;2024-03-08T07:30:01;31.85;;;23.17;;
40717;SDS011;26405;51.850;-2.246;2024-03-08T07:32:27;33.13;;;24.33;;
40717;SDS011;26405;51.850;-2.246;2024-03-08T07:34:55;34.47;;;24.88;;
40717;SDS011;26405;51.850;-2.246;2024-03-08T07:37:20;32.85;;;23.65;;
40717;SDS011;26405;51.850;-2.246;2024-03-08T07:39:46;31.60;;;23.80;;
40717;SDS011;26405;51.850;-2.246;2024-03-08T07:42:11;35.90;;;24.20;;
40717;SDS011;26405;51.850;-2.246;2024-03-08T07:44:37;33.25;;;24.27;;
40717;SDS011;26405;51.850;-2.246;2024-03-08T07:47:03;31.65;;;23.35;;
40717;SDS011;26405;51.850;-2.246;2024-03-08T07:49:28;32.67;;;23.65;;
40717;SDS011;26405;51.850;-2.246;2024-03-08T07:51:54;35.22;;;24.70;;
40717;SDS011;26405;51.850;-2.246;2024-03-08T07:54:19;31.83;;;23.48;;
40717;SDS011;26405;51.850;-2.246;2024-03-08T07:56:45;33.85;;;24.65;;
40717;SDS011;26405;51.850;-2.246;2024-03-08T07:59:10;36.50;;;24.60;;
40717;SDS011;26405;51.850;-2.246;2024-03-08T08:01:37;32.53;;;24.93;;
40717;SDS011;26405;51.850;-2.246;2024-03-08T08:04:03;33.63;;;22.75;;
40717;SDS011;26405;51.850;-2.246;2024-03-08T08:06:28;33.60;;;22.92;;
40717;SDS011;26405;51.850;-2.246;2024-03-08T08:08:57;33.22;;;24.20;;
40717;SDS011;26405;51.850;-2.246;2024-03-08T08:11:22;33.53;;;24.52;;
40717;SDS011;26405;51.850;-2.246;2024-03-08T08:13:47;33.88;;;24.23;;
40717;SDS011;26405;51.850;-2.246;2024-03-08T08:16:12;34.55;;;24.70;;
40717;SDS011;26405;51.850;-2.246;2024-03-08T08:18:38;36.85;;;25.38;;
40717;SDS011;26405;51.850;-2.246;2024-03-08T08:21:04;33.88;;;24.25;;
40717;SDS011;26405;51.850;-2.246;2024-03-08T08:23:31;33.17;;;24.90;;
40717;SDS011;26405;51.850;-2.246;2024-03-08T08:25:57;33.83;;;24.50;;
40717;SDS011;26405;51.850;-2.246;2024-03-08T08:28:22;39.28;;;25.65;;
40717;SDS011;26405;51.850;-2.246;2024-03-08T08:30:48;32.33;;;24.08;;
40717;SDS011;26405;51.850;-2.246;2024-03-08T08:33:14;33.30;;;23.55;;
40717;SDS011;26405;51.850;-2.246;2024-03-08T08:35:40;32.17;;;23.90;;
40717;SDS011;26405;51.850;-2.246;2024-03-08T08:38:05;34.13;;;24.48;;
40717;SDS011;26405;51.850;-2.246;2024-03-08T08:40:32;30.52;;;21.50;;
40717;SDS011;26405;51.850;-2.246;2024-03-08T08:42:57;34.03;;;24.67;;
40717;SDS011;26405;51.850;-2.246;2024-03-08T08:45:23;34.47;;;23.70;;
40717;SDS011;26405;51.850;-2.246;2024-03-08T08:47:48;33.03;;;24.00;;
40717;SDS011;26405;51.850;-2.246;2024-03-08T08:50:14;33.33;;;24.70;;
40717;SDS011;26405;51.850;-2.246;2024-03-08T08:52:41;35.40;;;25.45;;
40717;SDS011;26405;51.850;-2.246;2024-03-08T08:55:08;33.88;;;24.65;;
40717;SDS011;26405;51.850;-2.246;2024-03-08T08:57:34;34.47;;;24.88;;
40717;SDS011;26405;51.850;-2.246;2024-03-08T09:00:00;33.58;;;24.98;;
40717;SDS011;26405;51.850;-2.246;2024-03-08T09:02:25;35.28;;;25.48;;
40717;SDS011;26405;51.850;-2.246;2024-03-08T09:04:51;32.70;;;24.83;;
40717;SDS011;26405;51.850;-2.246;2024-03-08T09:07:16;32.40;;;24.58;;
40717;SDS011;26405;51.850;-2.246;2024-03-08T09:12:08;38.93;;;23.97;;
40717;SDS011;26405;51.850;-2.246;2024-03-08T09:14:38;36.13;;;24.40;;
40717;SDS011;26405;51.850;-2.246;2024-03-08T09:17:03;34.13;;;23.80;;
40717;SDS011;26405;51.850;-2.246;2024-03-08T09:19:29;33.17;;;24.20;;
40717;SDS011;26405;51.850;-2.246;2024-03-08T09:21:54;34.28;;;24.25;;
40717;SDS011;26405;51.850;-2.246;2024-03-08T09:24:20;34.72;;;25.75;;
40717;SDS011;26405;51.850;-2.246;2024-03-08T09:26:45;36.38;;;24.98;;
40717;SDS011;26405;51.850;-2.246;2024-03-08T09:29:11;33.97;;;25.77;;
40717;SDS011;26405;51.850;-2.246;2024-03-08T09:31:36;33.58;;;23.67;;
40717;SDS011;26405;51.850;-2.246;2024-03-08T09:34:03;32.53;;;23.73;;
40717;SDS011;26405;51.850;-2.246;2024-03-08T09:36:28;34.83;;;24.45;;
40717;SDS011;26405;51.850;-2.246;2024-03-08T09:38:53;32.45;;;23.25;;
40717;SDS011;26405;51.850;-2.246;2024-03-08T09:41:19;33.65;;;25.02;;
40717;SDS011;26405;51.850;-2.246;2024-03-08T09:43:44;33.53;;;23.77;;
40717;SDS011;26405;51.850;-2.246;2024-03-08T09:46:10;34.43;;;24.77;;
40717;SDS011;26405;51.850;-2.246;2024-03-08T09:48:36;32.25;;;22.85;;
40717;SDS011;26405;51.850;-2.246;2024-03-08T09:51:02;31.27;;;23.30;;
40717;SDS011;26405;51.850;-2.246;2024-03-08T09:53:28;34.00;;;24.92;;
40717;SDS011;26405;51.850;-2.246;2024-03-08T09:55:53;34.65;;;24.55;;
40717;SDS011;26405;51.850;-2.246;2024-03-08T09:58:18;31.67;;;23.17;;
40717;SDS011;26405;51.850;-2.246;2024-03-08T10:00:53;32.63;;;24.10;;
40717;SDS011;26405;51.850;-2.246;2024-03-08T10:03:21;32.15;;;22.30;;
40717;SDS011;26405;51.850;-2.246;2024-03-08T10:05:47;33.60;;;24.13;;
40717;SDS011;26405;51.850;-2.246;2024-03-08T10:08:12;32.63;;;23.15;;
40717;SDS011;26405;51.850;-2.246;2024-03-08T10:10:38;32.17;;;23.60;;
40717;SDS011;26405;51.850;-2.246;2024-03-08T10:13:06;31.55;;;21.88;;
40717;SDS011;26405;51.850;-2.246;2024-03-08T10:15:32;31.90;;;21.15;;
40717;SDS011;26405;51.850;-2.246;2024-03-08T10:18:00;31.67;;;22.40;;
40717;SDS011;26405;51.850;-2.246;2024-03-08T10:20:27;32.90;;;23.65;;
40717;SDS011;26405;51.850;-2.246;2024-03-08T10:22:53;34.22;;;22.83;;
40717;SDS011;26405;51.850;-2.246;2024-03-08T10:25:19;33.30;;;23.08;;
40717;SDS011;26405;51.850;-2.246;2024-03-08T10:27:44;31.60;;;22.10;;
40717;SDS011;26405;51.850;-2.246;2024-03-08T10:30:10;31.80;;;21.48;;
40717;SDS011;26405;51.850;-2.246;2024-03-08T10:32:38;30.75;;;22.25;;
40717;SDS011;26405;51.850;-2.246;2024-03-08T10:35:03;29.83;;;21.25;;
40717;SDS011;26405;51.850;-2.246;2024-03-08T10:37:29;35.72;;;22.10;;
40717;SDS011;26405;51.850;-2.246;2024-03-08T10:40:36;31.10;;;22.73;;
40717;SDS011;26405;51.850;-2.246;2024-03-08T10:42:53;32.47;;;22.50;;
40717;SDS011;26405;51.850;-2.246;2024-03-08T10:47:51;27.88;;;17.25;;
40717;SDS011;26405;51.850;-2.246;2024-03-08T10:50:20;35.33;;;21.92;;
40717;SDS011;26405;51.850;-2.246;2024-03-08T10:52:50;34.78;;;21.80;;
40717;SDS011;26405;51.850;-2.246;2024-03-08T10:55:16;32.63;;;22.45;;
40717;SDS011;26405;51.850;-2.246;2024-03-08T10:57:42;31.50;;;19.65;;
40717;SDS011;26405;51.850;-2.246;2024-03-08T11:00:08;29.33;;;19.77;;
40717;SDS011;26405;51.850;-2.246;2024-03-08T11:02:36;29.70;;;20.42;;
40717;SDS011;26405;51.850;-2.246;2024-03-08T11:05:05;28.80;;;20.92;;
40717;SDS011;26405;51.850;-2.246;2024-03-08T11:07:34;28.73;;;20.08;;
40717;SDS011;26405;51.850;-2.246;2024-03-08T11:10:03;28.25;;;19.52;;
40717;SDS011;26405;51.850;-2.246;2024-03-08T11:12:36;32.67;;;22.15;;
40717;SDS011;26405;51.850;-2.246;2024-03-08T11:15:02;29.90;;;21.60;;
40717;SDS011;26405;51.850;-2.246;2024-03-08T11:19:56;31.13;;;20.35;;
40717;SDS011;26405;51.850;-2.246;2024-03-08T11:22:22;26.42;;;18.13;;
40717;SDS011;26405;51.850;-2.246;2024-03-08T11:24:52;31.63;;;19.02;;
40717;SDS011;26405;51.850;-2.246;2024-03-08T11:27:17;29.92;;;20.80;;
40717;SDS011;26405;51.850;-2.246;2024-03-08T11:29:42;31.02;;;21.05;;
40717;SDS011;26405;51.850;-2.246;2024-03-08T11:32:11;30.98;;;20.90;;
40717;SDS011;26405;51.850;-2.246;2024-03-08T11:34:42;27.42;;;20.20;;
40717;SDS011;26405;51.850;-2.246;2024-03-08T11:37:11;31.75;;;20.55;;
40717;SDS011;26405;51.850;-2.246;2024-03-08T11:42:02;30.27;;;20.58;;
40717;SDS011;26405;51.850;-2.246;2024-03-08T11:44:28;29.05;;;19.60;;
40717;SDS011;26405;51.850;-2.246;2024-03-08T11:46:53;30.00;;;19.02;;
40717;SDS011;26405;51.850;-2.246;2024-03-08T11:49:19;30.08;;;21.58;;
40717;SDS011;26405;51.850;-2.246;2024-03-08T11:51:44;28.15;;;18.83;;
40717;SDS011;26405;51.850;-2.246;2024-03-08T11:54:12;29.92;;;20.52;;
40717;SDS011;26405;51.850;-2.246;2024-03-08T11:56:38;28.25;;;19.35;;
40717;SDS011;26405;51.850;-2.246;2024-03-08T11:59:03;29.38;;;20.33;;
40717;SDS011;26405;51.850;-2.246;2024-03-08T12:01:30;32.13;;;21.13;;
40717;SDS011;26405;51.850;-2.246;2024-03-08T12:03:56;29.67;;;20.23;;
40717;SDS011;26405;51.850;-2.246;2024-03-08T12:06:25;31.48;;;20.23;;
40717;SDS011;26405;51.850;-2.246;2024-03-08T12:08:51;28.27;;;19.40;;
40717;SDS011;26405;51.850;-2.246;2024-03-08T12:11:22;29.55;;;19.42;;
40717;SDS011;26405;51.850;-2.246;2024-03-08T12:13:48;29.00;;;19.77;;
40717;SDS011;26405;51.850;-2.246;2024-03-08T12:18:40;28.20;;;18.73;;
40717;SDS011;26405;51.850;-2.246;2024-03-08T12:23:34;28.23;;;18.80;;
40717;SDS011;26405;51.850;-2.246;2024-03-08T12:26:09;28.60;;;18.42;;
40717;SDS011;26405;51.850;-2.246;2024-03-08T12:28:38;28.33;;;18.50;;
40717;SDS011;26405;51.850;-2.246;2024-03-08T12:31:03;28.25;;;17.48;;
40717;SDS011;26405;51.850;-2.246;2024-03-08T12:33:30;25.90;;;17.70;;
40717;SDS011;26405;51.850;-2.246;2024-03-08T12:35:56;28.25;;;17.70;;
40717;SDS011;26405;51.850;-2.246;2024-03-08T12:38:23;27.55;;;17.90;;
40717;SDS011;26405;51.850;-2.246;2024-03-08T12:40:54;28.95;;;18.60;;
40717;SDS011;26405;51.850;-2.246;2024-03-08T12:43:20;26.15;;;17.05;;
40717;SDS011;26405;51.850;-2.246;2024-03-08T12:45:46;27.85;;;17.60;;
40717;SDS011;26405;51.850;-2.246;2024-03-08T12:48:14;28.35;;;18.08;;
40717;SDS011;26405;51.850;-2.246;2024-03-08T12:50:42;25.63;;;17.45;;
40717;SDS011;26405;51.850;-2.246;2024-03-08T12:53:12;26.27;;;18.10;;
40717;SDS011;26405;51.850;-2.246;2024-03-08T12:55:38;28.45;;;18.45;;
40717;SDS011;26405;51.850;-2.246;2024-03-08T12:58:03;28.13;;;18.58;;
40717;SDS011;26405;51.850;-2.246;2024-03-08T13:00:32;29.15;;;19.30;;
40717;SDS011;26405;51.850;-2.246;2024-03-08T13:02:58;28.45;;;19.23;;
40717;SDS011;26405;51.850;-2.246;2024-03-08T13:05:24;28.97;;;20.03;;
40717;SDS011;26405;51.850;-2.246;2024-03-08T13:07:49;25.92;;;17.70;;
40717;SDS011;26405;51.850;-2.246;2024-03-08T13:10:15;29.98;;;19.77;;
40717;SDS011;26405;51.850;-2.246;2024-03-08T13:12:43;25.70;;;17.53;;
40717;SDS011;26405;51.850;-2.246;2024-03-08T13:15:09;26.83;;;17.88;;
40717;SDS011;26405;51.850;-2.246;2024-03-08T13:17:45;30.80;;;18.70;;
40717;SDS011;26405;51.850;-2.246;2024-03-08T13:20:11;29.73;;;17.42;;
40717;SDS011;26405;51.850;-2.246;2024-03-08T13:22:41;27.17;;;18.23;;
40717;SDS011;26405;51.850;-2.246;2024-03-08T13:25:07;24.15;;;16.38;;
40717;SDS011;26405;51.850;-2.246;2024-03-08T13:27:38;26.63;;;17.52;;
40717;SDS011;26405;51.850;-2.246;2024-03-08T13:30:04;27.27;;;17.08;;
40717;SDS011;26405;51.850;-2.246;2024-03-08T13:32:29;25.75;;;18.38;;
40717;SDS011;26405;51.850;-2.246;2024-03-08T13:34:56;28.42;;;19.08;;
40717;SDS011;26405;51.850;-2.246;2024-03-08T13:37:21;29.70;;;17.88;;
40717;SDS011;26405;51.850;-2.246;2024-03-08T13:39:47;27.33;;;17.30;;
40717;SDS011;26405;51.850;-2.246;2024-03-08T13:42:12;31.90;;;18.45;;
40717;SDS011;26405;51.850;-2.246;2024-03-08T13:44:39;27.40;;;17.65;;
40717;SDS011;26405;51.850;-2.246;2024-03-08T13:47:04;26.23;;;18.20;;
40717;SDS011;26405;51.850;-2.246;2024-03-08T13:49:29;27.67;;;17.13;;
40717;SDS011;26405;51.850;-2.246;2024-03-08T13:51:55;26.48;;;17.90;;
40717;SDS011;26405;51.850;-2.246;2024-03-08T13:54:20;30.98;;;19.70;;
40717;SDS011;26405;51.850;-2.246;2024-03-08T13:56:46;28.98;;;20.35;;
40717;SDS011;26405;51.850;-2.246;2024-03-08T13:59:11;26.92;;;17.77;;
40717;SDS011;26405;51.850;-2.246;2024-03-08T14:01:37;26.63;;;18.65;;
40717;SDS011;26405;51.850;-2.246;2024-03-08T14:04:02;26.52;;;18.70;;
40717;SDS011;26405;51.850;-2.246;2024-03-08T14:06:29;28.70;;;19.48;;
40717;SDS011;26405;51.850;-2.246;2024-03-08T14:08:55;31.40;;;18.67;;
40717;SDS011;26405;51.850;-2.246;2024-03-08T14:13:48;24.30;;;16.52;;
40717;SDS011;26405;51.850;-2.246;2024-03-08T14:16:14;26.73;;;17.33;;
40717;SDS011;26405;51.850;-2.246;2024-03-08T14:18:40;30.48;;;17.45;;
40717;SDS011;26405;51.850;-2.246;2024-03-08T14:21:05;27.85;;;17.55;;
40717;SDS011;26405;51.850;-2.246;2024-03-08T14:23:33;26.23;;;17.50;;
40717;SDS011;26405;51.850;-2.246;2024-03-08T14:25:58;28.25;;;18.83;;